createdAt,value
2023-02-14T00:02:58.791Z,1.95
2023-02-14T00:08:01.652Z,1.91
2023-02-14T00:13:05.115Z,1.87
2023-02-14T00:18:08.058Z,1.81
2023-02-14T00:23:10.859Z,1.78
2023-02-14T00:28:13.588Z,1.75
2023-02-14T00:33:16.287Z,1.73
2023-02-14T00:38:18.955Z,1.71
2023-02-14T00:43:21.862Z,1.67
2023-02-14T00:48:25.589Z,1.64
2023-02-14T00:53:28.385Z,1.60
2023-02-14T00:58:31.491Z,1.56
2023-02-14T01:03:35.198Z,1.54
2023-02-14T01:08:38.231Z,1.52
2023-02-14T01:13:41.914Z,1.53
2023-02-14T01:18:45.308Z,1.54
2023-02-14T01:23:50.129Z,1.56
2023-02-14T01:28:53.834Z,1.59
2023-02-14T01:33:57.754Z,1.61
2023-02-14T01:39:04.704Z,1.64
2023-02-14T01:44:16.994Z,1.65
2023-02-14T01:49:30.130Z,1.65
2023-02-14T01:54:36.848Z,1.64
2023-02-14T01:59:46.880Z,1.61
2023-02-14T02:04:53.600Z,1.57
2023-02-14T02:10:00.997Z,1.56
2023-02-14T02:15:05.481Z,1.53
2023-02-14T02:20:41.732Z,1.46
2023-02-14T02:26:20.384Z,1.41
2023-02-14T02:31:59.836Z,1.34
2023-02-14T02:37:21.555Z,1.28
2023-02-14T02:42:27.045Z,1.20
2023-02-14T02:47:49.891Z,1.21
2023-02-14T02:53:23.946Z,1.25
2023-02-14T02:58:37.813Z,1.32
2023-02-14T03:04:04.129Z,1.41
2023-02-14T03:09:34.107Z,1.52
2023-02-14T03:14:55.548Z,1.60
2023-02-14T03:20:39.097Z,1.65
2023-02-14T03:25:59.926Z,1.68
2023-02-14T03:31:19.293Z,1.73
2023-02-14T03:36:26.608Z,1.77
2023-02-14T03:41:37.006Z,1.78
2023-02-14T03:46:45.652Z,1.80
2023-02-14T03:51:50.994Z,1.81
2023-02-14T03:57:02.404Z,1.82
2023-02-14T04:02:17.615Z,1.85
2023-02-14T04:07:23.273Z,1.88
2023-02-14T04:12:37.216Z,1.91
2023-02-14T04:18:00.179Z,1.98
2023-02-14T04:23:03.922Z,2.01
2023-02-14T04:28:06.734Z,2.05
2023-02-14T04:33:10.791Z,2.11
2023-02-14T04:38:14.098Z,2.15
2023-02-14T04:43:17.463Z,2.19
2023-02-14T04:48:20.187Z,2.23
2023-02-14T04:53:23.126Z,2.27
2023-02-14T04:58:26.284Z,2.32
2023-02-14T05:03:29.018Z,2.37
2023-02-14T05:08:31.797Z,2.41
2023-02-14T05:13:34.596Z,2.42
2023-02-14T05:18:37.397Z,2.42
2023-02-14T05:23:40.611Z,2.42
2023-02-14T05:28:43.332Z,2.42
2023-02-14T05:33:46.023Z,2.43
2023-02-14T05:38:48.815Z,2.42
2023-02-14T05:43:51.494Z,2.44
2023-02-14T05:48:54.314Z,2.45
2023-02-14T05:54:00.073Z,2.46
2023-02-14T05:59:02.933Z,2.47
2023-02-14T06:04:06.034Z,2.49
2023-02-14T06:09:08.830Z,2.51
2023-02-14T06:14:11.603Z,2.55
2023-02-14T06:19:14.299Z,2.56
2023-02-14T06:24:17.106Z,2.58
2023-02-14T06:29:20.115Z,2.62
2023-02-14T06:34:23.012Z,2.67
2023-02-14T06:39:25.977Z,2.70
2023-02-14T06:44:28.911Z,2.72
2023-02-14T06:49:31.665Z,2.75
2023-02-14T06:54:34.408Z,2.81
2023-02-14T06:59:37.071Z,2.86
2023-02-14T07:04:39.855Z,2.91
2023-02-14T07:09:42.790Z,2.95
2023-02-14T07:14:45.507Z,3.01
2023-02-14T07:19:48.219Z,3.06
2023-02-14T07:24:51.448Z,3.10
2023-02-14T07:29:54.208Z,3.12
2023-02-14T07:34:57.006Z,3.16
2023-02-14T07:39:59.771Z,3.21
2023-02-14T07:45:19.370Z,3.28
2023-02-14T07:50:24.484Z,3.37
2023-02-14T07:55:27.264Z,3.47
2023-02-14T08:00:30.040Z,3.54
2023-02-14T08:05:33.204Z,3.65
2023-02-14T08:10:36.005Z,3.76
2023-02-14T08:15:57.221Z,3.84
2023-02-14T08:21:00.872Z,3.94
2023-02-14T08:26:04.417Z,3.97
2023-02-14T08:31:07.401Z,4.00
2023-02-14T08:36:10.182Z,4.07
2023-02-14T08:41:13.478Z,4.14
2023-02-14T08:46:17.093Z,4.22
2023-02-14T08:51:20.877Z,4.27
2023-02-14T08:56:25.042Z,4.34
2023-02-14T09:01:29.299Z,4.41
2023-02-14T09:06:32.121Z,4.52
2023-02-14T09:11:35.352Z,4.62
2023-02-14T09:16:38.209Z,4.70
2023-02-14T09:21:41.035Z,4.73
2023-02-14T09:26:43.797Z,4.74
2023-02-14T09:31:46.571Z,4.79
2023-02-14T09:36:49.538Z,4.88
2023-02-14T09:42:15.477Z,4.98
2023-02-14T09:47:38.657Z,5.07
2023-02-14T09:52:41.375Z,5.20
2023-02-14T09:57:57.869Z,5.33
2023-02-14T10:03:11.948Z,5.48
2023-02-14T10:08:37.076Z,5.64
2023-02-14T10:13:48.400Z,5.95
2023-02-14T10:18:59.664Z,6.16
2023-02-14T10:24:14.122Z,6.54
2023-02-14T10:29:19.228Z,6.63
2023-02-14T10:34:35.321Z,6.67
2023-02-14T10:39:56.761Z,7.07
2023-02-14T10:45:17.165Z,7.36
2023-02-14T10:50:30.868Z,7.62
2023-02-14T10:55:36.642Z,8.08
2023-02-14T11:00:49.401Z,8.26
2023-02-14T11:05:52.363Z,8.38
2023-02-14T11:11:07.544Z,8.78
2023-02-14T11:16:13.180Z,9.90
2023-02-14T11:21:24.395Z,11.00
2023-02-14T11:26:32.969Z,14.56
2023-02-14T11:31:38.630Z,16.50
2023-02-14T11:36:42.671Z,15.34
2023-02-14T11:41:53.978Z,13.76
2023-02-14T11:46:58.241Z,12.61
2023-02-14T11:52:16.366Z,12.18
2023-02-14T11:57:28.305Z,13.19
2023-02-14T12:02:40.635Z,14.89
2023-02-14T12:07:46.258Z,16.22
2023-02-14T12:13:09.219Z,15.94
2023-02-14T12:18:14.790Z,16.51
2023-02-14T12:23:30.515Z,18.20
2023-02-14T12:28:43.028Z,19.14
2023-02-14T12:33:47.547Z,20.47
2023-02-14T12:39:11.410Z,21.84
2023-02-14T12:44:51.448Z,23.35
2023-02-14T12:50:14.637Z,25.19
2023-02-14T12:55:35.962Z,26.43
2023-02-14T13:00:57.756Z,27.00
2023-02-14T13:06:29.380Z,27.28
2023-02-14T13:11:54.404Z,27.29
2023-02-14T13:17:07.822Z,27.12
2023-02-14T13:22:17.579Z,26.95
2023-02-14T13:27:27.854Z,26.79
2023-02-14T13:32:37.459Z,26.10
2023-02-14T13:37:53.067Z,25.46
2023-02-14T13:43:00.726Z,24.77
2023-02-14T13:48:21.936Z,24.30
2023-02-14T13:53:44.862Z,24.03
2023-02-14T13:59:00.089Z,23.55
2023-02-14T14:04:07.573Z,23.05
2023-02-14T14:09:12.567Z,22.56
2023-02-14T14:14:21.559Z,21.89
2023-02-14T14:19:27.240Z,21.18
2023-02-14T14:24:37.513Z,20.16
2023-02-14T14:29:47.619Z,18.99
2023-02-14T14:34:59.864Z,17.83
2023-02-14T14:40:09.626Z,16.18
2023-02-14T14:45:31.508Z,15.09
2023-02-14T14:50:36.651Z,14.17
2023-02-14T14:55:45.981Z,13.58
2023-02-14T15:00:51.656Z,13.30
2023-02-14T15:06:16.595Z,12.49
2023-02-14T15:11:46.129Z,11.51
2023-02-14T15:16:52.571Z,10.91
2023-02-14T15:21:56.197Z,10.40
2023-02-14T15:26:59.424Z,9.85
2023-02-14T15:32:03.736Z,9.26
2023-02-14T15:37:07.329Z,8.65
2023-02-14T15:42:32.784Z,8.09
2023-02-14T15:47:36.174Z,7.50
2023-02-14T15:52:41.229Z,7.08
2023-02-14T15:57:48.630Z,6.74
2023-02-14T16:02:59.646Z,6.43
2023-02-14T16:08:05.953Z,6.19
2023-02-14T16:13:14.825Z,5.96
2023-02-14T16:18:32.267Z,5.78
2023-02-14T16:23:36.937Z,5.60
2023-02-14T16:28:41.431Z,5.40
2023-02-14T16:33:45.350Z,5.21
2023-02-14T16:38:48.550Z,5.07
2023-02-14T16:43:51.847Z,4.92
2023-02-14T16:48:55.781Z,4.77
2023-02-14T16:54:00.664Z,4.61
2023-02-14T16:59:04.586Z,4.49
2023-02-14T17:04:07.638Z,4.39
2023-02-14T17:09:12.524Z,4.31
2023-02-14T17:14:21.484Z,4.23
2023-02-14T17:19:24.681Z,4.10
2023-02-14T17:24:27.705Z,3.92
2023-02-14T17:29:30.445Z,3.71
2023-02-14T17:34:33.797Z,3.50
2023-02-14T17:39:36.920Z,3.30
2023-02-14T17:44:39.696Z,3.14
2023-02-14T17:49:43.145Z,3.01
2023-02-14T17:54:46.150Z,2.95
2023-02-14T17:59:49.566Z,2.93
2023-02-14T18:04:52.902Z,2.95
2023-02-14T18:09:55.681Z,2.98
2023-02-14T18:14:58.391Z,3.03
2023-02-14T18:20:01.366Z,3.10
2023-02-14T18:25:05.140Z,3.16
2023-02-14T18:30:09.588Z,3.22
2023-02-14T18:35:12.453Z,3.27
2023-02-14T18:40:20.302Z,3.34
2023-02-14T18:45:23.421Z,3.41
2023-02-14T18:50:26.795Z,3.46
2023-02-14T18:55:29.799Z,3.51
2023-02-14T19:00:33.523Z,3.57
2023-02-14T19:05:38.102Z,3.61
2023-02-14T19:10:40.849Z,3.63
2023-02-14T19:15:43.572Z,3.66
2023-02-14T19:20:46.288Z,3.69
2023-02-14T19:25:49.353Z,3.71
2023-02-14T19:30:52.916Z,3.72
2023-02-14T19:36:01.334Z,3.75
2023-02-14T19:41:04.129Z,3.79
2023-02-14T19:46:07.536Z,3.81
2023-02-14T19:51:27.990Z,3.83
2023-02-14T19:56:33.292Z,3.85
2023-02-14T20:01:46.469Z,3.89
2023-02-14T20:06:49.932Z,3.93
2023-02-14T20:11:55.758Z,3.96
2023-02-14T20:17:01.055Z,3.96
2023-02-14T20:22:05.048Z,3.99
2023-02-14T20:27:08.293Z,4.01
2023-02-14T20:32:16.293Z,4.02
2023-02-14T20:37:19.193Z,4.06
2023-02-14T20:42:22.504Z,4.07
2023-02-14T20:47:25.290Z,4.05
2023-02-14T20:52:28.405Z,4.03
2023-02-14T20:57:31.138Z,4.02
2023-02-14T21:02:33.912Z,4.04
2023-02-14T21:07:38.614Z,4.03
2023-02-14T21:12:41.870Z,4.03
2023-02-14T21:17:44.875Z,4.02
2023-02-14T21:22:47.784Z,4.01
2023-02-14T21:27:50.501Z,4.01
2023-02-14T21:32:53.288Z,4.03
2023-02-14T21:37:56.088Z,4.05
2023-02-14T21:42:58.882Z,4.07
2023-02-14T21:48:20.140Z,4.10
2023-02-14T21:53:22.828Z,4.11
2023-02-14T21:58:25.520Z,4.11
2023-02-14T22:03:28.283Z,4.08
2023-02-14T22:08:31.971Z,4.06
2023-02-14T22:13:35.772Z,4.08
2023-02-14T22:18:39.214Z,4.11
2023-02-14T22:23:41.980Z,4.12
2023-02-14T22:28:47.135Z,4.11
2023-02-14T22:33:50.662Z,4.06
2023-02-14T22:38:53.316Z,4.01
2023-02-14T22:43:57.490Z,3.97
2023-02-14T22:49:00.474Z,3.94
2023-02-14T22:54:12.514Z,3.91
2023-02-14T22:59:20.118Z,3.86
2023-02-14T23:04:24.905Z,3.81
2023-02-14T23:09:28.526Z,3.74
2023-02-14T23:14:49.831Z,3.69
2023-02-14T23:20:11.169Z,3.66
2023-02-14T23:25:13.971Z,3.66
2023-02-14T23:30:18.832Z,3.67
2023-02-14T23:35:21.600Z,3.68
2023-02-14T23:40:25.026Z,3.68
2023-02-14T23:45:36.678Z,3.68
2023-02-14T23:50:39.730Z,3.68
2023-02-14T23:55:42.456Z,3.69
